Portada
METAR-TAF:

METAR-TAF

Aeropuertos :

Tetuán, Marruecos

Aeropuerto Tétouan-Martil Sania Ramel

latitud: 35-35N, longitud: 005-20W, altitud: 10 m

Observación

El informe se hizo hace 20 minutos, a las 08:00 UTC
Viento 6 kt del sur-suroeste
Temperatura 12°C
Humedad 82%
Presión 1026 hPa
Visibilidad: 8000 m

METAR: GMTN 280800Z 20006KT 8000 NSC 12/09 Q1026 NOSIG

Hora: 09:20 (08:20 UTC)


TAF: falta

Observaciones y pronósticos meteorológicos de más de 4000 aeropuertos (mensajes METAR y TAF).

Los puntos amarillos y rojos representan las estaciones disponibles.

Ponga el ratón en el punto deseado para ver el nombre de la estación.

Haga clic para ver las observaciones y los pronósticos meteorológicos.

Para cambiar el mapa : haga clic en los botones verdes con una cruz de color negro para hacer un zoom, en el botón verde con un guión para alejar o en las flechas verdes para mapas adyacentes.


METAR-TAF: